sensor_id;sensor_type;location;lat;lon;timestamp;temperature;humidity
52295;DHT22;38243;53.212;6.574;2023-04-21T00:01:58;17.20;72.40
52295;DHT22;38243;53.212;6.574;2023-04-21T00:04:25;17.20;72.40
52295;DHT22;38243;53.212;6.574;2023-04-21T00:06:51;17.20;72.40
52295;DHT22;38243;53.212;6.574;2023-04-21T00:09:17;17.20;72.30
52295;DHT22;38243;53.212;6.574;2023-04-21T00:11:43;17.20;72.90
52295;DHT22;38243;53.212;6.574;2023-04-21T00:14:09;17.10;72.30
52295;DHT22;38243;53.212;6.574;2023-04-21T00:16:35;17.10;72.30
52295;DHT22;38243;53.212;6.574;2023-04-21T00:19:00;17.20;72.30
52295;DHT22;38243;53.212;6.574;2023-04-21T00:21:31;17.10;72.30
52295;DHT22;38243;53.212;6.574;2023-04-21T00:23:57;17.10;72.30
52295;DHT22;38243;53.212;6.574;2023-04-21T00:26:23;17.10;72.40
52295;DHT22;38243;53.212;6.574;2023-04-21T00:28:49;17.10;72.40
52295;DHT22;38243;53.212;6.574;2023-04-21T00:31:15;17.10;72.30
52295;DHT22;38243;53.212;6.574;2023-04-21T00:33:41;17.10;72.30
52295;DHT22;38243;53.212;6.574;2023-04-21T00:36:06;17.10;72.40
52295;DHT22;38243;53.212;6.574;2023-04-21T00:38:32;17.10;72.40
52295;DHT22;38243;53.212;6.574;2023-04-21T00:40:58;17.10;72.40
52295;DHT22;38243;53.212;6.574;2023-04-21T00:43:23;17.10;72.40
52295;DHT22;38243;53.212;6.574;2023-04-21T00:45:52;17.10;72.40
52295;DHT22;38243;53.212;6.574;2023-04-21T00:48:17;17.10;72.30
52295;DHT22;38243;53.212;6.574;2023-04-21T00:50:44;17.10;72.30
52295;DHT22;38243;53.212;6.574;2023-04-21T00:53:11;17.10;72.30
52295;DHT22;38243;53.212;6.574;2023-04-21T00:55:39;17.00;72.30
52295;DHT22;38243;53.212;6.574;2023-04-21T00:58:04;17.10;72.40
52295;DHT22;38243;53.212;6.574;2023-04-21T01:00:30;17.00;72.40
52295;DHT22;38243;53.212;6.574;2023-04-21T01:02:56;17.10;72.40
52295;DHT22;38243;53.212;6.574;2023-04-21T01:05:24;17.00;72.40
52295;DHT22;38243;53.212;6.574;2023-04-21T01:07:50;17.00;72.40
52295;DHT22;38243;53.212;6.574;2023-04-21T01:10:15;17.00;72.40
52295;DHT22;38243;53.212;6.574;2023-04-21T01:12:45;17.00;72.30
52295;DHT22;38243;53.212;6.574;2023-04-21T01:15:13;17.00;72.40
52295;DHT22;38243;53.212;6.574;2023-04-21T01:17:39;17.00;72.50
52295;DHT22;38243;53.212;6.574;2023-04-21T01:20:12;17.00;72.40
52295;DHT22;38243;53.212;6.574;2023-04-21T01:22:39;17.00;72.40
52295;DHT22;38243;53.212;6.574;2023-04-21T01:25:06;17.00;72.50
52295;DHT22;38243;53.212;6.574;2023-04-21T01:27:33;17.00;72.50
52295;DHT22;38243;53.212;6.574;2023-04-21T01:29:59;17.00;72.40
52295;DHT22;38243;53.212;6.574;2023-04-21T01:32:26;17.00;72.40
52295;DHT22;38243;53.212;6.574;2023-04-21T01:34:54;17.00;72.40
52295;DHT22;38243;53.212;6.574;2023-04-21T01:37:26;17.00;72.30
52295;DHT22;38243;53.212;6.574;2023-04-21T01:39:55;17.00;72.40
52295;DHT22;38243;53.212;6.574;2023-04-21T01:42:22;17.10;72.40
52295;DHT22;38243;53.212;6.574;2023-04-21T01:44:48;17.00;72.40
52295;DHT22;38243;53.212;6.574;2023-04-21T01:47:15;17.00;72.30
52295;DHT22;38243;53.212;6.574;2023-04-21T01:49:41;17.00;72.20
52295;DHT22;38243;53.212;6.574;2023-04-21T01:52:07;17.00;72.30
52295;DHT22;38243;53.212;6.574;2023-04-21T01:54:33;17.00;72.20
52295;DHT22;38243;53.212;6.574;2023-04-21T01:56:59;17.00;72.20
52295;DHT22;38243;53.212;6.574;2023-04-21T01:59:24;17.00;72.20
52295;DHT22;38243;53.212;6.574;2023-04-21T02:01:50;17.00;72.20
52295;DHT22;38243;53.212;6.574;2023-04-21T02:04:16;17.00;72.10
52295;DHT22;38243;53.212;6.574;2023-04-21T02:06:42;17.00;72.10
52295;DHT22;38243;53.212;6.574;2023-04-21T02:09:07;17.00;72.10
52295;DHT22;38243;53.212;6.574;2023-04-21T02:11:33;16.90;72.10
52295;DHT22;38243;53.212;6.574;2023-04-21T02:13:59;16.90;72.10
52295;DHT22;38243;53.212;6.574;2023-04-21T02:16:25;16.90;72.20
52295;DHT22;38243;53.212;6.574;2023-04-21T02:18:54;16.90;72.10
52295;DHT22;38243;53.212;6.574;2023-04-21T02:21:27;16.90;72.20
52295;DHT22;38243;53.212;6.574;2023-04-21T02:23:53;16.90;72.10
52295;DHT22;38243;53.212;6.574;2023-04-21T02:26:19;16.90;72.20
52295;DHT22;38243;53.212;6.574;2023-04-21T02:28:46;16.90;72.10
52295;DHT22;38243;53.212;6.574;2023-04-21T02:31:12;16.90;72.20
52295;DHT22;38243;53.212;6.574;2023-04-21T02:33:38;16.90;72.20
52295;DHT22;38243;53.212;6.574;2023-04-21T02:36:04;16.80;72.20
52295;DHT22;38243;53.212;6.574;2023-04-21T02:38:30;16.80;72.20
52295;DHT22;38243;53.212;6.574;2023-04-21T02:40:56;16.80;72.20
52295;DHT22;38243;53.212;6.574;2023-04-21T02:43:22;16.80;72.20
52295;DHT22;38243;53.212;6.574;2023-04-21T02:45:48;16.80;72.30
52295;DHT22;38243;53.212;6.574;2023-04-21T02:48:14;16.80;72.20
52295;DHT22;38243;53.212;6.574;2023-04-21T02:50:41;16.80;72.10
52295;DHT22;38243;53.212;6.574;2023-04-21T02:53:06;16.80;72.30
52295;DHT22;38243;53.212;6.574;2023-04-21T02:55:32;16.80;72.30
52295;DHT22;38243;53.212;6.574;2023-04-21T02:57:58;16.80;72.30
52295;DHT22;38243;53.212;6.574;2023-04-21T03:00:24;16.80;72.30
52295;DHT22;38243;53.212;6.574;2023-04-21T03:02:50;16.80;72.40
52295;DHT22;38243;53.212;6.574;2023-04-21T03:05:17;16.80;72.40
52295;DHT22;38243;53.212;6.574;2023-04-21T03:07:46;16.80;72.30
52295;DHT22;38243;53.212;6.574;2023-04-21T03:10:12;16.80;72.30
52295;DHT22;38243;53.212;6.574;2023-04-21T03:12:38;16.80;72.30
52295;DHT22;38243;53.212;6.574;2023-04-21T03:15:04;16.80;72.40
52295;DHT22;38243;53.212;6.574;2023-04-21T03:17:30;16.80;72.40
52295;DHT22;38243;53.212;6.574;2023-04-21T03:19:56;16.80;72.40
52295;DHT22;38243;53.212;6.574;2023-04-21T03:22:21;16.80;72.50
52295;DHT22;38243;53.212;6.574;2023-04-21T03:24:47;16.70;72.40
52295;DHT22;38243;53.212;6.574;2023-04-21T03:27:13;16.70;72.30
52295;DHT22;38243;53.212;6.574;2023-04-21T03:29:39;16.70;72.50
52295;DHT22;38243;53.212;6.574;2023-04-21T03:32:04;16.70;72.50
52295;DHT22;38243;53.212;6.574;2023-04-21T03:34:30;16.70;72.50
52295;DHT22;38243;53.212;6.574;2023-04-21T03:36:56;16.70;72.50
52295;DHT22;38243;53.212;6.574;2023-04-21T03:39:22;16.70;72.60
52295;DHT22;38243;53.212;6.574;2023-04-21T03:41:47;16.70;72.50
52295;DHT22;38243;53.212;6.574;2023-04-21T03:44:13;16.60;72.50
52295;DHT22;38243;53.212;6.574;2023-04-21T03:46:39;16.60;72.50
52295;DHT22;38243;53.212;6.574;2023-04-21T03:49:04;16.60;72.50
52295;DHT22;38243;53.212;6.574;2023-04-21T03:51:30;16.60;72.60
52295;DHT22;38243;53.212;6.574;2023-04-21T03:53:57;16.60;72.50
52295;DHT22;38243;53.212;6.574;2023-04-21T03:56:23;16.60;72.60
52295;DHT22;38243;53.212;6.574;2023-04-21T03:58:49;16.60;72.50
52295;DHT22;38243;53.212;6.574;2023-04-21T04:01:14;16.60;72.50
52295;DHT22;38243;53.212;6.574;2023-04-21T04:03:40;16.60;72.50
52295;DHT22;38243;53.212;6.574;2023-04-21T04:06:06;16.60;72.50
52295;DHT22;38243;53.212;6.574;2023-04-21T04:08:32;16.60;72.60
52295;DHT22;38243;53.212;6.574;2023-04-21T04:10:57;16.60;72.60
52295;DHT22;38243;53.212;6.574;2023-04-21T04:13:23;16.60;72.40
52295;DHT22;38243;53.212;6.574;2023-04-21T04:15:51;16.60;72.50
52295;DHT22;38243;53.212;6.574;2023-04-21T04:18:17;16.60;72.50
52295;DHT22;38243;53.212;6.574;2023-04-21T04:20:42;16.60;72.50
52295;DHT22;38243;53.212;6.574;2023-04-21T04:23:08;16.60;72.60
52295;DHT22;38243;53.212;6.574;2023-04-21T04:25:34;16.60;72.60
52295;DHT22;38243;53.212;6.574;2023-04-21T04:28:01;16.60;72.60
52295;DHT22;38243;53.212;6.574;2023-04-21T04:30:28;16.60;72.60
52295;DHT22;38243;53.212;6.574;2023-04-21T04:32:54;16.60;72.50
52295;DHT22;38243;53.212;6.574;2023-04-21T04:35:22;16.60;72.50
52295;DHT22;38243;53.212;6.574;2023-04-21T04:37:48;16.60;72.40
52295;DHT22;38243;53.212;6.574;2023-04-21T04:40:14;16.60;72.50
52295;DHT22;38243;53.212;6.574;2023-04-21T04:42:40;16.60;72.60
52295;DHT22;38243;53.212;6.574;2023-04-21T04:45:07;16.60;72.50
52295;DHT22;38243;53.212;6.574;2023-04-21T04:47:37;16.60;72.50
52295;DHT22;38243;53.212;6.574;2023-04-21T04:50:03;16.60;72.40
52295;DHT22;38243;53.212;6.574;2023-04-21T04:52:29;16.50;72.40
52295;DHT22;38243;53.212;6.574;2023-04-21T04:54:55;16.50;72.50
52295;DHT22;38243;53.212;6.574;2023-04-21T04:57:21;16.50;72.60
52295;DHT22;38243;53.212;6.574;2023-04-21T04:59:47;16.30;72.60
52295;DHT22;38243;53.212;6.574;2023-04-21T05:02:13;16.50;72.80
52295;DHT22;38243;53.212;6.574;2023-04-21T05:04:39;16.50;72.90
52295;DHT22;38243;53.212;6.574;2023-04-21T05:07:05;16.50;72.90
52295;DHT22;38243;53.212;6.574;2023-04-21T05:09:32;16.50;72.80
52295;DHT22;38243;53.212;6.574;2023-04-21T05:11:59;16.50;72.80
52295;DHT22;38243;53.212;6.574;2023-04-21T05:14:26;16.50;72.80
52295;DHT22;38243;53.212;6.574;2023-04-21T05:16:52;16.60;72.80
52295;DHT22;38243;53.212;6.574;2023-04-21T05:19:17;16.50;72.60
52295;DHT22;38243;53.212;6.574;2023-04-21T05:21:43;16.50;72.70
52295;DHT22;38243;53.212;6.574;2023-04-21T05:24:09;16.50;72.80
52295;DHT22;38243;53.212;6.574;2023-04-21T05:26:34;16.50;72.80
52295;DHT22;38243;53.212;6.574;2023-04-21T05:29:00;16.50;72.70
52295;DHT22;38243;53.212;6.574;2023-04-21T05:31:26;16.50;72.70
52295;DHT22;38243;53.212;6.574;2023-04-21T05:33:52;16.50;72.70
52295;DHT22;38243;53.212;6.574;2023-04-21T05:36:18;16.50;72.70
52295;DHT22;38243;53.212;6.574;2023-04-21T05:38:46;16.50;72.70
52295;DHT22;38243;53.212;6.574;2023-04-21T05:41:12;16.50;72.70
52295;DHT22;38243;53.212;6.574;2023-04-21T05:43:38;16.50;72.70
52295;DHT22;38243;53.212;6.574;2023-04-21T05:46:08;16.50;72.70
52295;DHT22;38243;53.212;6.574;2023-04-21T05:48:35;16.50;72.60
52295;DHT22;38243;53.212;6.574;2023-04-21T05:51:08;16.50;72.60
52295;DHT22;38243;53.212;6.574;2023-04-21T05:53:35;16.50;72.50
52295;DHT22;38243;53.212;6.574;2023-04-21T05:56:00;16.50;72.60
52295;DHT22;38243;53.212;6.574;2023-04-21T05:58:26;16.50;72.70
52295;DHT22;38243;53.212;6.574;2023-04-21T06:00:52;16.50;72.60
52295;DHT22;38243;53.212;6.574;2023-04-21T06:03:17;16.60;72.70
52295;DHT22;38243;53.212;6.574;2023-04-21T06:05:43;16.60;72.70
52295;DHT22;38243;53.212;6.574;2023-04-21T06:08:09;16.60;72.70
52295;DHT22;38243;53.212;6.574;2023-04-21T06:10:35;16.70;72.70
52295;DHT22;38243;53.212;6.574;2023-04-21T06:13:00;16.70;72.70
52295;DHT22;38243;53.212;6.574;2023-04-21T06:15:26;16.70;72.80
52295;DHT22;38243;53.212;6.574;2023-04-21T06:17:52;16.70;72.70
52295;DHT22;38243;53.212;6.574;2023-04-21T06:20:19;16.70;72.60
52295;DHT22;38243;53.212;6.574;2023-04-21T06:22:45;16.70;72.50
52295;DHT22;38243;53.212;6.574;2023-04-21T06:25:13;16.70;72.70
52295;DHT22;38243;53.212;6.574;2023-04-21T06:27:39;16.70;72.60
52295;DHT22;38243;53.212;6.574;2023-04-21T06:30:05;16.80;72.50
52295;DHT22;38243;53.212;6.574;2023-04-21T06:32:31;16.80;72.80
52295;DHT22;38243;53.212;6.574;2023-04-21T06:34:57;16.80;72.80
52295;DHT22;38243;53.212;6.574;2023-04-21T06:37:22;16.80;72.90
52295;DHT22;38243;53.212;6.574;2023-04-21T06:39:48;16.80;72.80
52295;DHT22;38243;53.212;6.574;2023-04-21T06:42:14;16.90;72.60
52295;DHT22;38243;53.212;6.574;2023-04-21T06:44:39;16.90;72.50
52295;DHT22;38243;53.212;6.574;2023-04-21T06:47:05;16.90;72.40
52295;DHT22;38243;53.212;6.574;2023-04-21T06:49:31;16.90;72.40
52295;DHT22;38243;53.212;6.574;2023-04-21T06:51:58;17.00;72.40
52295;DHT22;38243;53.212;6.574;2023-04-21T06:54:24;17.00;72.30
52295;DHT22;38243;53.212;6.574;2023-04-21T06:56:50;17.10;72.30
52295;DHT22;38243;53.212;6.574;2023-04-21T06:59:16;17.10;72.20
52295;DHT22;38243;53.212;6.574;2023-04-21T07:01:42;17.10;72.20
52295;DHT22;38243;53.212;6.574;2023-04-21T07:04:07;17.20;72.10
52295;DHT22;38243;53.212;6.574;2023-04-21T07:06:33;17.20;72.00
52295;DHT22;38243;53.212;6.574;2023-04-21T07:08:59;17.30;72.00
52295;DHT22;38243;53.212;6.574;2023-04-21T07:11:25;17.40;72.00
52295;DHT22;38243;53.212;6.574;2023-04-21T07:13:53;17.40;71.90
52295;DHT22;38243;53.212;6.574;2023-04-21T07:16:19;17.40;71.80
52295;DHT22;38243;53.212;6.574;2023-04-21T07:18:45;17.50;71.80
52295;DHT22;38243;53.212;6.574;2023-04-21T07:21:11;17.50;71.70
52295;DHT22;38243;53.212;6.574;2023-04-21T07:23:37;17.60;71.70
52295;DHT22;38243;53.212;6.574;2023-04-21T07:26:02;17.70;71.80
52295;DHT22;38243;53.212;6.574;2023-04-21T07:28:28;17.70;71.70
52295;DHT22;38243;53.212;6.574;2023-04-21T07:30:54;17.80;71.50
52295;DHT22;38243;53.212;6.574;2023-04-21T07:33:21;17.80;71.50
52295;DHT22;38243;53.212;6.574;2023-04-21T07:35:47;17.90;71.40
52295;DHT22;38243;53.212;6.574;2023-04-21T07:38:12;18.00;71.30
52295;DHT22;38243;53.212;6.574;2023-04-21T07:40:38;18.00;71.30
52295;DHT22;38243;53.212;6.574;2023-04-21T07:43:04;18.10;71.20
52295;DHT22;38243;53.212;6.574;2023-04-21T07:45:30;18.10;71.00
52295;DHT22;38243;53.212;6.574;2023-04-21T07:47:56;18.20;70.90
52295;DHT22;38243;53.212;6.574;2023-04-21T07:50:22;18.20;70.70
52295;DHT22;38243;53.212;6.574;2023-04-21T07:52:47;18.30;70.60
52295;DHT22;38243;53.212;6.574;2023-04-21T07:55:13;18.30;70.50
52295;DHT22;38243;53.212;6.574;2023-04-21T07:57:39;18.40;70.40
52295;DHT22;38243;53.212;6.574;2023-04-21T08:00:06;18.50;70.30
52295;DHT22;38243;53.212;6.574;2023-04-21T08:02:32;18.50;70.10
52295;DHT22;38243;53.212;6.574;2023-04-21T08:04:58;18.50;69.90
52295;DHT22;38243;53.212;6.574;2023-04-21T08:07:26;19.40;70.30
52295;DHT22;38243;53.212;6.574;2023-04-21T08:09:52;18.60;69.80
52295;DHT22;38243;53.212;6.574;2023-04-21T08:12:17;18.70;69.80
52295;DHT22;38243;53.212;6.574;2023-04-21T08:14:43;18.70;69.80
52295;DHT22;38243;53.212;6.574;2023-04-21T08:17:09;18.70;69.70
52295;DHT22;38243;53.212;6.574;2023-04-21T08:19:35;18.80;69.80
52295;DHT22;38243;53.212;6.574;2023-04-21T08:22:01;18.80;69.60
52295;DHT22;38243;53.212;6.574;2023-04-21T08:24:26;18.80;69.50
52295;DHT22;38243;53.212;6.574;2023-04-21T08:26:52;18.90;69.60
52295;DHT22;38243;53.212;6.574;2023-04-21T08:29:18;18.90;69.70
52295;DHT22;38243;53.212;6.574;2023-04-21T08:31:44;18.90;69.50
52295;DHT22;38243;53.212;6.574;2023-04-21T08:34:09;18.90;69.70
52295;DHT22;38243;53.212;6.574;2023-04-21T08:36:35;18.90;69.70
52295;DHT22;38243;53.212;6.574;2023-04-21T08:39:01;18.90;69.50
52295;DHT22;38243;53.212;6.574;2023-04-21T08:41:27;18.90;69.50
52295;DHT22;38243;53.212;6.574;2023-04-21T08:43:52;18.90;69.50
52295;DHT22;38243;53.212;6.574;2023-04-21T08:46:19;18.90;69.40
52295;DHT22;38243;53.212;6.574;2023-04-21T08:48:46;18.90;69.50
52295;DHT22;38243;53.212;6.574;2023-04-21T08:51:17;18.90;69.50
52295;DHT22;38243;53.212;6.574;2023-04-21T08:53:43;18.90;69.60
52295;DHT22;38243;53.212;6.574;2023-04-21T08:56:10;19.00;69.60
52295;DHT22;38243;53.212;6.574;2023-04-21T08:58:36;19.00;69.70
52295;DHT22;38243;53.212;6.574;2023-04-21T09:01:02;19.00;69.70
52295;DHT22;38243;53.212;6.574;2023-04-21T09:03:28;19.00;69.60
52295;DHT22;38243;53.212;6.574;2023-04-21T09:05:59;19.00;69.60
52295;DHT22;38243;53.212;6.574;2023-04-21T09:08:25;19.00;69.60
52295;DHT22;38243;53.212;6.574;2023-04-21T09:10:52;19.00;69.70
52295;DHT22;38243;53.212;6.574;2023-04-21T09:13:19;19.00;69.70
52295;DHT22;38243;53.212;6.574;2023-04-21T09:15:49;19.00;69.80
52295;DHT22;38243;53.212;6.574;2023-04-21T09:18:21;19.00;70.10
52295;DHT22;38243;53.212;6.574;2023-04-21T09:20:49;19.10;70.00
52295;DHT22;38243;53.212;6.574;2023-04-21T09:23:15;19.10;70.00
52295;DHT22;38243;53.212;6.574;2023-04-21T09:25:43;19.10;70.20
52295;DHT22;38243;53.212;6.574;2023-04-21T09:28:13;19.10;70.30
52295;DHT22;38243;53.212;6.574;2023-04-21T09:30:40;19.10;70.60
52295;DHT22;38243;53.212;6.574;2023-04-21T09:33:13;19.10;70.70
52295;DHT22;38243;53.212;6.574;2023-04-21T09:35:40;19.10;70.70
52295;DHT22;38243;53.212;6.574;2023-04-21T09:38:11;19.10;70.70
52295;DHT22;38243;53.212;6.574;2023-04-21T09:40:38;19.10;70.70
52295;DHT22;38243;53.212;6.574;2023-04-21T09:43:05;19.20;71.00
52295;DHT22;38243;53.212;6.574;2023-04-21T09:45:31;19.20;71.00
52295;DHT22;38243;53.212;6.574;2023-04-21T09:47:59;19.20;70.70
52295;DHT22;38243;53.212;6.574;2023-04-21T09:50:26;19.20;70.60
52295;DHT22;38243;53.212;6.574;2023-04-21T09:52:54;19.20;70.60
52295;DHT22;38243;53.212;6.574;2023-04-21T09:55:27;19.20;70.40
52295;DHT22;38243;53.212;6.574;2023-04-21T09:57:59;19.20;70.10
52295;DHT22;38243;53.212;6.574;2023-04-21T10:00:27;19.20;70.50
52295;DHT22;38243;53.212;6.574;2023-04-21T10:02:55;19.30;69.90
52295;DHT22;38243;53.212;6.574;2023-04-21T10:05:21;19.30;70.00
52295;DHT22;38243;53.212;6.574;2023-04-21T10:07:48;19.30;69.90
52295;DHT22;38243;53.212;6.574;2023-04-21T10:10:25;19.30;69.50
52295;DHT22;38243;53.212;6.574;2023-04-21T10:12:52;19.30;69.00
52295;DHT22;38243;53.212;6.574;2023-04-21T10:15:37;19.30;69.00
52295;DHT22;38243;53.212;6.574;2023-04-21T10:18:18;19.30;69.10
52295;DHT22;38243;53.212;6.574;2023-04-21T10:21:09;19.30;68.80
52295;DHT22;38243;53.212;6.574;2023-04-21T10:23:46;19.30;68.80
52295;DHT22;38243;53.212;6.574;2023-04-21T10:26:26;19.30;68.80
52295;DHT22;38243;53.212;6.574;2023-04-21T10:28:58;19.40;68.80
52295;DHT22;38243;53.212;6.574;2023-04-21T10:31:33;19.40;68.90
52295;DHT22;38243;53.212;6.574;2023-04-21T10:36:32;19.40;68.80
52295;DHT22;38243;53.212;6.574;2023-04-21T10:39:03;19.40;68.80
52295;DHT22;38243;53.212;6.574;2023-04-21T10:41:30;19.50;68.60
52295;DHT22;38243;53.212;6.574;2023-04-21T10:44:15;19.50;68.50
52295;DHT22;38243;53.212;6.574;2023-04-21T10:46:48;19.50;68.50
52295;DHT22;38243;53.212;6.574;2023-04-21T10:49:27;19.50;68.10
52295;DHT22;38243;53.212;6.574;2023-04-21T10:57:13;19.60;67.50
52295;DHT22;38243;53.212;6.574;2023-04-21T10:59:39;19.60;67.50
52295;DHT22;38243;53.212;6.574;2023-04-21T11:02:06;19.70;66.90
52295;DHT22;38243;53.212;6.574;2023-04-21T11:04:33;19.60;66.40
52295;DHT22;38243;53.212;6.574;2023-04-21T11:07:15;19.60;66.00
52295;DHT22;38243;53.212;6.574;2023-04-21T11:09:43;19.70;66.00
52295;DHT22;38243;53.212;6.574;2023-04-21T11:12:17;19.70;65.80
52295;DHT22;38243;53.212;6.574;2023-04-21T11:14:44;19.70;66.20
52295;DHT22;38243;53.212;6.574;2023-04-21T11:17:19;19.70;65.90
52295;DHT22;38243;53.212;6.574;2023-04-21T11:19:56;19.80;65.90
52295;DHT22;38243;53.212;6.574;2023-04-21T11:22:23;19.70;66.00
52295;DHT22;38243;53.212;6.574;2023-04-21T11:24:54;19.80;66.00
52295;DHT22;38243;53.212;6.574;2023-04-21T11:27:21;19.80;66.00
52295;DHT22;38243;53.212;6.574;2023-04-21T11:29:48;19.80;65.60
52295;DHT22;38243;53.212;6.574;2023-04-21T11:32:15;19.80;65.70
52295;DHT22;38243;53.212;6.574;2023-04-21T11:34:41;19.80;65.40
52295;DHT22;38243;53.212;6.574;2023-04-21T11:37:08;19.80;65.30
52295;DHT22;38243;53.212;6.574;2023-04-21T11:39:34;19.80;65.30
52295;DHT22;38243;53.212;6.574;2023-04-21T11:42:00;19.80;65.20
52295;DHT22;38243;53.212;6.574;2023-04-21T11:44:32;19.90;65.40
52295;DHT22;38243;53.212;6.574;2023-04-21T11:46:58;19.90;64.50
52295;DHT22;38243;53.212;6.574;2023-04-21T11:49:25;19.90;64.10
52295;DHT22;38243;53.212;6.574;2023-04-21T11:51:54;19.90;64.30
52295;DHT22;38243;53.212;6.574;2023-04-21T11:54:20;19.90;64.50
52295;DHT22;38243;53.212;6.574;2023-04-21T11:56:49;19.90;64.10
52295;DHT22;38243;53.212;6.574;2023-04-21T11:59:17;19.90;64.20
52295;DHT22;38243;53.212;6.574;2023-04-21T12:01:52;19.90;64.40
52295;DHT22;38243;53.212;6.574;2023-04-21T12:04:20;19.90;64.30
52295;DHT22;38243;53.212;6.574;2023-04-21T12:06:55;19.90;64.20
52295;DHT22;38243;53.212;6.574;2023-04-21T12:09:21;19.90;63.70
52295;DHT22;38243;53.212;6.574;2023-04-21T12:11:51;20.00;63.90
52295;DHT22;38243;53.212;6.574;2023-04-21T12:14:19;20.00;63.90
52295;DHT22;38243;53.212;6.574;2023-04-21T12:16:56;20.00;63.70
52295;DHT22;38243;53.212;6.574;2023-04-21T12:19:42;20.00;63.50
52295;DHT22;38243;53.212;6.574;2023-04-21T12:22:16;20.00;63.00
52295;DHT22;38243;53.212;6.574;2023-04-21T12:24:48;20.00;62.70
52295;DHT22;38243;53.212;6.574;2023-04-21T12:27:14;20.00;62.70
52295;DHT22;38243;53.212;6.574;2023-04-21T12:29:40;20.00;63.00
52295;DHT22;38243;53.212;6.574;2023-04-21T12:32:07;20.00;63.10
52295;DHT22;38243;53.212;6.574;2023-04-21T12:34:34;20.00;64.00
52295;DHT22;38243;53.212;6.574;2023-04-21T12:37:00;20.00;63.40
52295;DHT22;38243;53.212;6.574;2023-04-21T12:39:26;20.00;63.30
52295;DHT22;38243;53.212;6.574;2023-04-21T12:41:51;20.00;63.20
52295;DHT22;38243;53.212;6.574;2023-04-21T12:44:17;20.00;62.70
52295;DHT22;38243;53.212;6.574;2023-04-21T12:46:43;20.00;61.90
52295;DHT22;38243;53.212;6.574;2023-04-21T12:49:09;20.00;61.80
52295;DHT22;38243;53.212;6.574;2023-04-21T12:51:35;20.00;60.50
52295;DHT22;38243;53.212;6.574;2023-04-21T12:54:01;20.00;59.30
52295;DHT22;38243;53.212;6.574;2023-04-21T12:56:27;20.00;58.60
52295;DHT22;38243;53.212;6.574;2023-04-21T12:58:53;20.10;59.20
52295;DHT22;38243;53.212;6.574;2023-04-21T13:01:23;20.00;59.90
52295;DHT22;38243;53.212;6.574;2023-04-21T13:03:49;20.00;59.60
52295;DHT22;38243;53.212;6.574;2023-04-21T13:06:15;20.10;59.60
52295;DHT22;38243;53.212;6.574;2023-04-21T13:08:41;20.10;59.70
52295;DHT22;38243;53.212;6.574;2023-04-21T13:11:07;20.10;59.40
52295;DHT22;38243;53.212;6.574;2023-04-21T13:13:33;20.00;59.40
52295;DHT22;38243;53.212;6.574;2023-04-21T13:15:58;20.10;59.40
52295;DHT22;38243;53.212;6.574;2023-04-21T13:18:24;20.10;59.80
52295;DHT22;38243;53.212;6.574;2023-04-21T13:20:50;20.10;59.30
52295;DHT22;38243;53.212;6.574;2023-04-21T13:23:16;20.10;59.30
52295;DHT22;38243;53.212;6.574;2023-04-21T13:25:41;20.10;59.30
52295;DHT22;38243;53.212;6.574;2023-04-21T13:28:10;20.10;59.70
52295;DHT22;38243;53.212;6.574;2023-04-21T13:30:38;20.10;58.90
52295;DHT22;38243;53.212;6.574;2023-04-21T13:33:04;20.10;58.70
52295;DHT22;38243;53.212;6.574;2023-04-21T13:35:30;20.10;58.80
52295;DHT22;38243;53.212;6.574;2023-04-21T13:37:56;20.10;57.80
52295;DHT22;38243;53.212;6.574;2023-04-21T13:40:22;20.10;57.50
52295;DHT22;38243;53.212;6.574;2023-04-21T13:42:48;20.20;56.90
52295;DHT22;38243;53.212;6.574;2023-04-21T13:45:13;20.20;56.20
52295;DHT22;38243;53.212;6.574;2023-04-21T13:47:39;20.10;54.90
52295;DHT22;38243;53.212;6.574;2023-04-21T13:50:05;20.20;55.10
52295;DHT22;38243;53.212;6.574;2023-04-21T13:52:31;20.20;54.60
52295;DHT22;38243;53.212;6.574;2023-04-21T13:54:59;20.10;54.50
52295;DHT22;38243;53.212;6.574;2023-04-21T13:57:25;20.10;54.70
52295;DHT22;38243;53.212;6.574;2023-04-21T13:59:51;20.10;54.80
52295;DHT22;38243;53.212;6.574;2023-04-21T14:02:18;20.10;54.70
52295;DHT22;38243;53.212;6.574;2023-04-21T14:04:48;20.10;54.30
52295;DHT22;38243;53.212;6.574;2023-04-21T14:07:13;20.20;55.10
52295;DHT22;38243;53.212;6.574;2023-04-21T14:09:43;20.10;54.90
52295;DHT22;38243;53.212;6.574;2023-04-21T14:12:08;20.10;55.80
52295;DHT22;38243;53.212;6.574;2023-04-21T14:14:35;20.10;56.60
52295;DHT22;38243;53.212;6.574;2023-04-21T14:17:01;20.20;57.20
52295;DHT22;38243;53.212;6.574;2023-04-21T14:19:28;20.20;57.50
52295;DHT22;38243;53.212;6.574;2023-04-21T14:21:54;20.20;58.10
52295;DHT22;38243;53.212;6.574;2023-04-21T14:24:19;20.20;58.60
52295;DHT22;38243;53.212;6.574;2023-04-21T14:26:46;20.20;58.80
52295;DHT22;38243;53.212;6.574;2023-04-21T14:29:12;20.20;58.60
52295;DHT22;38243;53.212;6.574;2023-04-21T14:31:38;20.20;58.30
52295;DHT22;38243;53.212;6.574;2023-04-21T14:34:03;20.20;58.20
52295;DHT22;38243;53.212;6.574;2023-04-21T14:36:30;20.20;58.50
52295;DHT22;38243;53.212;6.574;2023-04-21T14:38:56;20.20;58.60
52295;DHT22;38243;53.212;6.574;2023-04-21T14:41:21;20.20;58.00
52295;DHT22;38243;53.212;6.574;2023-04-21T14:43:47;20.20;58.40
52295;DHT22;38243;53.212;6.574;2023-04-21T14:46:18;20.20;58.30
52295;DHT22;38243;53.212;6.574;2023-04-21T14:48:44;20.20;58.20
52295;DHT22;38243;53.212;6.574;2023-04-21T14:51:10;20.20;58.20
52295;DHT22;38243;53.212;6.574;2023-04-21T14:53:36;20.20;57.70
52295;DHT22;38243;53.212;6.574;2023-04-21T14:56:01;20.20;57.70
52295;DHT22;38243;53.212;6.574;2023-04-21T14:58:27;20.20;57.40
52295;DHT22;38243;53.212;6.574;2023-04-21T15:00:53;20.20;57.20
52295;DHT22;38243;53.212;6.574;2023-04-21T15:03:19;20.20;57.40
52295;DHT22;38243;53.212;6.574;2023-04-21T15:05:45;20.20;57.50
52295;DHT22;38243;53.212;6.574;2023-04-21T15:08:10;20.20;57.40
52295;DHT22;38243;53.212;6.574;2023-04-21T15:10:40;20.20;57.30
52295;DHT22;38243;53.212;6.574;2023-04-21T15:13:05;20.20;57.40
52295;DHT22;38243;53.212;6.574;2023-04-21T15:15:31;20.20;57.70
52295;DHT22;38243;53.212;6.574;2023-04-21T15:17:57;20.20;58.00
52295;DHT22;38243;53.212;6.574;2023-04-21T15:20:23;20.20;57.50
52295;DHT22;38243;53.212;6.574;2023-04-21T15:22:48;20.20;57.30
52295;DHT22;38243;53.212;6.574;2023-04-21T15:25:14;20.20;57.70
52295;DHT22;38243;53.212;6.574;2023-04-21T15:27:43;20.20;57.10
52295;DHT22;38243;53.212;6.574;2023-04-21T15:30:09;20.20;56.90
52295;DHT22;38243;53.212;6.574;2023-04-21T15:32:36;20.20;57.00
52295;DHT22;38243;53.212;6.574;2023-04-21T15:35:02;20.20;57.30
52295;DHT22;38243;53.212;6.574;2023-04-21T15:37:28;20.30;57.70